Aktualne dane pomiarowe

Uwaga, wersja testowa! Automatyczne pobieranie danych za pomocą narzędzi lub skryptów to umożliwiających jest zabronione.

Dane meteo z obszaru Polski uzyskane na podstawie depesz SYNOP pobieranych co godzinę z NWS. Najedź myszką na symbol przedstawiony w tabeli, aby uzyskać informacje co do jego znaczenia. Prosimy pamiętać, że to testowa wersja strony, która jeszcze nie jest ukończona. Stworzono również jest krótki FAQ dotyczący korzystania z tej podstrony Anomalie temperatury w chwili obecnej odniesione są do okresu referencyjnego 1951-2016. Okres ten będzie później zmieniony na 1981-2010. Kliknij ikonę aby pobrać plik CSV. Kliknij ikonę aby wygenerować mapę synoptyczną dla danego terminu.

Wybierz Datę:    

        

Powidz (12336)

Dane terminowe dla wybranej stacji. Kliknij datę, aby otrzymać dane z tego terminu dla wszystkich stacji.

TemperaturaZachmurzenieWiatrCiśnienieOpadyPogoda
 Data t td wb tx tn tg rh  Nt Nl Cl Cm Ch ws wd g1 g2 wx mslp ppp ch 24h 12h t ww ww w1 w2  
2019-08-08 23:00:00 13.9 13.4 13.5--- 9710.0wx-wx1----1012.1 998.1 1.5---------
2019-08-08 22:00:00 16.0 13.8 14.5--- 8710.0wx-wx2wx---1011.5 997.7 1.4---wx-w1w2--
2019-08-08 21:00:00 15.1 14.3 14.5--- 956.0wxwxwx5wx10--1011.4 997.5 1.6---wx-w1--
2019-08-08 20:00:00 19.8 11.8 14.8--- 6010.0wxwxwxwx3wx---1010.3 996.7 0.6---------
2019-08-08 19:00:00 21.0 11.4 15.1--- 5410.0wxwxwx2wx---1009.9 996.3 0.3---------
2019-08-08 18:00:00 22.5 11.0 15.6--- 4810.0wx-wx3wx---1009.5 996.0 -0.1---------
2019-08-08 17:00:00 24.6 11.6 16.7--- 4410.0wxwxwx4wx---1009.5 996.1 -0.4---------
2019-08-08 16:00:00 25.0 10.6 16.5--- 4010.0wxwxwx6wx---1009.5 996.1 -0.6---------
2019-08-08 15:00:00 25.3 10.8 16.7--- 4010.0wxwxwx6wx---1009.5 996.1 -0.8---------
2019-08-08 14:00:00 23.9 12.6 16.9--- 4910.0wxwxwxwx6wx---1009.9 996.5 -0.3---------
2019-08-08 13:00:00 21.2 16.2 17.8--- 7310.0wxwxwx3wx---1010.3 996.7 0.2---------
2019-08-08 12:00:00 23.0 11.6 16.1--- 4910.0wxwxwx8wx---1010.4 996.9 0.4---wx---
2019-08-08 11:00:00 24.8 11.4 16.7--- 4310.0wxwxwx8wx---1010.2 996.8 0.8---------
2019-08-08 10:00:00 22.8 11.9 16.1--- 5010.0wxwxwx6wx---1010.0 996.5 0.9---------
2019-08-08 09:00:00 22.1 13.7 16.8--- 5910.0wxwxwx6wx---1010.0 996.5 1.7---------
2019-08-08 08:00:00 20.8 14.4 16.6--- 6710.0wxwxwx6wx---1009.6 996.0 1.9---------
2019-08-08 07:00:00 19.7 15.8 17.0--- 7810.0wxwxwx6wx---1009.2 995.6 1.9---------
2019-08-08 06:00:00 18.5 16.5 17.1--- 8810.0wxwxwx6wx---1008.5 994.8 1.6---------
2019-08-08 05:00:00 17.6 17.0 17.2--- 9610.0wx-wx4wx---1007.7 994.0 1.4---------
2019-08-08 04:00:00 16.4 16.1 16.2--- 987.0wx-wx4wx---1007.3 993.6 1.0---wx---
2019-08-08 03:00:00 17.2 17.0 17.0--- 996.0wxwxwx5wx---1006.9 993.2 0.8---wx---
2019-08-08 02:00:00 17.7 17.4 17.5--- 988.0wxwxwx5wx---1006.3 992.7 0.3---wx---
2019-08-08 01:00:00 18.1 17.9 17.9--- 9910.0wxwxwx5wx---1006.2 992.6 0.2---wx-w1w2--
2019-08-08 00:00:00 18.0 17.7 17.8--- 9810.0wxwxwx3wx---1006.1 992.4 0.4---wx-w2--
2019-08-07 23:00:00 18.3 17.6 17.8--- 9610.0wxwxwx4wx---1006.0 992.4 0.2---------
2019-08-07 22:00:00 18.4 18.4 18.4--- 1004.0wxwxwx3wx---1006.0 992.4 0.5---wx-w1w2--
2019-08-07 21:00:00 18.4 18.1 18.2--- 985.0wxwxwxwx3wx---1005.6 992.0 0.3---wx-w1--
2019-08-07 20:00:00 18.5 18.3 18.3--- 9910.0wxwxwxwx3wx---1005.7 992.1 0.1---wx---
2019-08-07 19:00:00 18.4 18.2 18.2--- 9910.0wxwxwxwx2wx---1005.4 991.8 0.5---------
2019-08-07 18:00:00 18.7 18.5 18.6--- 9910.0wxwxwxwx3wx---1005.3 991.7 -0.2---wx-w1w2--
2019-08-07 17:00:00 21.9 16.0 17.9--- 691.0wxwxwxwx10wx15--1005.8 992.2 -0.3---wx-w1w2--
2019-08-07 16:00:00 26.5 13.3 18.3--- 4410.0wxwxwxwx4wx---1004.5 991.9 -1.8---------
2019-08-07 15:00:00 27.0 13.5 18.6--- 4310.0wxwxwxwx4wx---1005.0 991.8 -2.0---------
2019-08-07 14:00:00 26.4 14.3 18.8--- 4710.0wxwxwxwx4wx---1005.7 992.5 -1.9---------
2019-08-07 13:00:00 25.7 16.1 19.4--- 5510.0wxwxwxwx3wx---1006.3 993.0 -1.3---------
2019-08-07 12:00:00 25.7 15.1 18.9--- 5210.0wxwxwxwxwx4wx---1007.0 993.7 -0.7---------
2019-08-07 11:00:00 24.8 16.0 19.0--- 5810.0wxwxwxwxwx4wx---1007.8 994.4 0.0---------
2019-08-07 10:00:00 24.4 14.3 18.0--- 5310.0wxwxwxwxwx2wx---1007.7 994.3 -0.4---------
2019-08-07 09:00:00 23.7 15.7 18.5--- 6110.0wx-wxwx2wx---1007.7 994.3 -0.3---------
2019-08-07 08:00:00 21.8 15.6 17.7--- 6810.0wx-wxwx2wx---1007.8 994.4 -0.3---------
2019-08-07 07:00:00 20.0 16.5 17.6--- 8010.0wx-wx2wx---1008.3 994.7 0.0---------
2019-08-07 06:00:00 18.4 16.9 17.3--- 9110.0wx-wx2wx---1008.2 994.5 0.5---------
2019-08-07 05:00:00 17.0 16.8 16.8--- 998.0wx-wx1----1008.4 994.7 0.5---wx---
2019-08-07 04:00:00 15.6 15.4 15.4--- 992.0wx-wx2wx---1008.4 994.6 0.1---wx-w1w2--
2019-08-07 03:00:00 16.4 16.1 16.2--- 983.5wx-wx1----1007.7 994.0 -0.8---wx---
2019-08-07 02:00:00 16.6 16.1 16.2--- 9710.0wx-wx1----1007.8 994.1 -1.0---------
2019-08-07 01:00:00 17.8 16.2 16.6--- 9010.0wxwxwxwx1wx---1008.2 994.5 0.0---------
2019-08-07 00:00:00 17.9 16.1 16.6--- 8910.0wxwxwxwx1wx---1008.5 994.8 -0.1---wx-w1w2--
3.9 ms

 

Print Friendly, PDF & Email